createdAt,value
2023-05-11T08:00:59.525Z,13.20
2023-05-11T08:05:12.478Z,13.30
2023-05-11T08:10:05.710Z,13.60
2023-05-11T08:18:50.350Z,14.20
2023-05-11T08:54:44.419Z,16.20
2023-05-11T08:58:56.186Z,15.80
2023-05-11T09:03:07.072Z,15.50
2023-05-11T09:07:18.306Z,15.10
2023-05-11T09:11:30.135Z,14.90
2023-05-11T09:15:39.727Z,14.80
2023-05-11T09:20:23.030Z,14.50
2023-05-11T09:24:33.525Z,14.50
2023-05-11T09:29:03.054Z,14.60
2023-05-11T09:33:13.439Z,14.90
2023-05-11T09:37:25.835Z,15.50
2023-05-11T09:41:47.574Z,15.60
2023-05-11T09:46:05.117Z,15.90
2023-05-11T09:51:20.456Z,16.40
2023-05-11T09:55:30.231Z,16.70
2023-05-11T09:59:41.400Z,16.80
2023-05-11T10:04:02.746Z,16.70
2023-05-11T10:08:28.797Z,16.30
2023-05-11T10:12:40.676Z,15.80
2023-05-11T10:16:49.859Z,15.90
2023-05-11T10:21:01.061Z,16.30
2023-05-11T10:25:11.149Z,16.70
2023-05-11T10:29:21.394Z,17.00
2023-05-11T10:33:30.883Z,17.30
2023-05-11T10:37:43.340Z,17.50
2023-05-11T10:42:02.253Z,17.50
2023-05-11T10:46:26.562Z,17.50
2023-05-11T10:50:53.952Z,17.20
2023-05-11T10:55:17.145Z,17.00
2023-05-11T10:59:51.808Z,16.50
2023-05-11T11:04:05.873Z,16.20
2023-05-11T11:08:15.120Z,15.90
2023-05-11T11:12:27.817Z,15.60
2023-05-11T11:16:37.953Z,15.50
2023-05-11T11:20:52.738Z,15.70
2023-05-11T11:25:01.955Z,16.30
2023-05-11T11:29:15.643Z,16.70
2023-05-11T11:33:35.971Z,16.50
2023-05-11T11:38:03.672Z,16.10
2023-05-11T11:42:13.891Z,15.60
2023-05-11T11:46:33.355Z,15.60
2023-05-11T11:50:53.285Z,15.70
2023-05-11T11:55:08.394Z,15.60
2023-05-11T11:59:17.575Z,15.70
2023-05-11T12:03:29.225Z,15.70
2023-05-11T12:07:43.255Z,15.90
2023-05-11T12:11:53.010Z,16.10
2023-05-11T12:16:13.061Z,16.30
2023-05-11T12:20:24.464Z,16.50
2023-05-11T12:24:33.989Z,16.80
2023-05-11T12:28:46.226Z,17.40
2023-05-11T12:32:56.933Z,17.30
2023-05-11T12:37:10.917Z,17.10
2023-05-11T12:41:22.823Z,16.80
2023-05-11T12:45:32.238Z,16.60
2023-05-11T12:49:43.928Z,16.30
2023-05-11T12:53:54.826Z,16.00
2023-05-11T12:58:13.386Z,15.90
2023-05-11T13:02:27.278Z,15.70
2023-05-11T13:16:31.977Z,15.20
2023-05-11T13:20:43.576Z,15.40
2023-05-11T13:25:04.270Z,15.30
2023-05-11T13:29:19.247Z,15.40
2023-05-11T13:33:31.300Z,15.50
2023-05-11T13:37:40.546Z,15.70
2023-05-11T13:41:54.372Z,15.70
2023-05-11T13:46:05.575Z,15.80
2023-05-11T13:54:42.740Z,15.70
2023-05-11T13:59:06.548Z,15.60
2023-05-11T14:03:16.495Z,15.60
2023-05-11T14:07:39.204Z,15.70
2023-05-11T14:11:56.739Z,16.10
2023-05-11T14:16:06.185Z,16.40
2023-05-11T15:25:02.167Z,16.60
2023-05-11T15:29:11.843Z,16.50
2023-05-11T15:33:52.846Z,16.50
2023-05-11T15:38:05.053Z,16.50
2023-05-11T16:43:20.193Z,17.40
2023-05-11T18:06:54.868Z,16.50
2023-05-11T18:11:04.920Z,15.80
2023-05-11T18:15:16.965Z,15.30
2023-05-11T18:28:37.927Z,14.80
2023-05-11T18:42:07.270Z,13.80
2023-05-11T18:46:18.372Z,13.60
2023-05-11T18:50:30.112Z,13.50
2023-05-11T18:54:39.422Z,13.30
2023-05-11T18:58:51.042Z,13.20
2023-05-11T19:03:02.261Z,13.30
2023-05-11T19:07:12.388Z,13.40
2023-05-11T19:11:32.224Z,13.20
2023-05-11T19:15:42.751Z,13.00
2023-05-11T19:19:53.794Z,12.90
2023-05-11T19:24:03.161Z,12.80
2023-05-11T19:28:14.157Z,12.80
2023-05-11T19:32:25.267Z,12.90
2023-05-11T19:36:36.384Z,12.80
2023-05-11T19:40:46.521Z,12.80
2023-05-11T20:09:06.942Z,12.40
2023-05-11T21:17:44.445Z,11.30
2023-05-11T21:21:58.967Z,11.20
2023-05-11T21:26:10.427Z,11.00
2023-05-11T21:34:50.900Z,11.00
2023-05-11T21:39:00.971Z,11.00
2023-05-11T21:43:13.881Z,10.90
